sensor_id;sensor_type;location;lat;lon;timestamp;temperature;humidity
2012;DHT22;1009;51.436;6.972;2022-09-11T00:00:39;16.50;99.90
2012;DHT22;1009;51.436;6.972;2022-09-11T00:03:07;16.50;99.90
2012;DHT22;1009;51.436;6.972;2022-09-11T00:05:36;16.50;99.90
2012;DHT22;1009;51.436;6.972;2022-09-11T00:08:04;16.50;99.90
2012;DHT22;1009;51.436;6.972;2022-09-11T00:10:33;16.40;99.90
2012;DHT22;1009;51.436;6.972;2022-09-11T00:13:02;16.40;99.90
2012;DHT22;1009;51.436;6.972;2022-09-11T00:15:29;16.40;99.90
2012;DHT22;1009;51.436;6.972;2022-09-11T00:17:56;16.30;99.90
2012;DHT22;1009;51.436;6.972;2022-09-11T00:20:23;16.20;99.90
2012;DHT22;1009;51.436;6.972;2022-09-11T00:22:50;16.10;99.90
2012;DHT22;1009;51.436;6.972;2022-09-11T00:25:17;16.10;99.90
2012;DHT22;1009;51.436;6.972;2022-09-11T00:27:44;16.10;99.90
2012;DHT22;1009;51.436;6.972;2022-09-11T00:30:12;16.10;99.90
2012;DHT22;1009;51.436;6.972;2022-09-11T00:32:39;16.10;99.90
2012;DHT22;1009;51.436;6.972;2022-09-11T00:35:06;16.20;99.90
2012;DHT22;1009;51.436;6.972;2022-09-11T00:37:33;16.20;99.90
2012;DHT22;1009;51.436;6.972;2022-09-11T00:40:01;16.20;99.90
2012;DHT22;1009;51.436;6.972;2022-09-11T00:42:28;16.10;99.90
2012;DHT22;1009;51.436;6.972;2022-09-11T00:44:58;16.00;99.90
2012;DHT22;1009;51.436;6.972;2022-09-11T00:47:28;16.00;99.90
2012;DHT22;1009;51.436;6.972;2022-09-11T00:50:02;16.00;99.90
2012;DHT22;1009;51.436;6.972;2022-09-11T00:52:34;16.00;99.90
2012;DHT22;1009;51.436;6.972;2022-09-11T00:55:04;16.00;99.90
2012;DHT22;1009;51.436;6.972;2022-09-11T00:57:36;16.00;99.90
2012;DHT22;1009;51.436;6.972;2022-09-11T01:00:06;15.90;99.90
2012;DHT22;1009;51.436;6.972;2022-09-11T01:02:37;15.90;99.90
2012;DHT22;1009;51.436;6.972;2022-09-11T01:05:06;15.90;99.90
2012;DHT22;1009;51.436;6.972;2022-09-11T01:07:35;15.90;99.90
2012;DHT22;1009;51.436;6.972;2022-09-11T01:10:03;15.90;99.90
2012;DHT22;1009;51.436;6.972;2022-09-11T01:12:38;15.80;99.90
2012;DHT22;1009;51.436;6.972;2022-09-11T01:15:14;15.80;99.90
2012;DHT22;1009;51.436;6.972;2022-09-11T01:17:52;15.80;99.90
2012;DHT22;1009;51.436;6.972;2022-09-11T01:20:37;15.90;99.90
2012;DHT22;1009;51.436;6.972;2022-09-11T01:23:32;15.90;99.90
2012;DHT22;1009;51.436;6.972;2022-09-11T01:26:20;15.80;99.90
2012;DHT22;1009;51.436;6.972;2022-09-11T01:28:56;15.80;99.90
2012;DHT22;1009;51.436;6.972;2022-09-11T01:31:28;15.70;99.90
2012;DHT22;1009;51.436;6.972;2022-09-11T01:33:57;15.60;99.90
2012;DHT22;1009;51.436;6.972;2022-09-11T01:36:29;15.60;99.90
2012;DHT22;1009;51.436;6.972;2022-09-11T01:39:00;15.60;99.90
2012;DHT22;1009;51.436;6.972;2022-09-11T01:41:31;15.60;99.90
2012;DHT22;1009;51.436;6.972;2022-09-11T01:44:03;15.60;99.90
2012;DHT22;1009;51.436;6.972;2022-09-11T01:46:34;15.60;99.90
2012;DHT22;1009;51.436;6.972;2022-09-11T01:49:07;15.60;99.90
2012;DHT22;1009;51.436;6.972;2022-09-11T01:51:37;15.70;99.90
2012;DHT22;1009;51.436;6.972;2022-09-11T01:54:09;15.70;99.90
2012;DHT22;1009;51.436;6.972;2022-09-11T01:56:38;15.80;99.90
2012;DHT22;1009;51.436;6.972;2022-09-11T01:59:10;15.80;99.90
2012;DHT22;1009;51.436;6.972;2022-09-11T02:01:43;15.80;99.90
2012;DHT22;1009;51.436;6.972;2022-09-11T02:04:17;15.90;99.90
2012;DHT22;1009;51.436;6.972;2022-09-11T02:06:47;15.80;99.90
2012;DHT22;1009;51.436;6.972;2022-09-11T02:09:17;15.80;99.90
2012;DHT22;1009;51.436;6.972;2022-09-11T02:11:46;15.70;99.90
2012;DHT22;1009;51.436;6.972;2022-09-11T02:14:19;15.80;99.90
2012;DHT22;1009;51.436;6.972;2022-09-11T02:16:51;15.90;99.90
2012;DHT22;1009;51.436;6.972;2022-09-11T02:19:19;15.90;99.90
2012;DHT22;1009;51.436;6.972;2022-09-11T02:21:46;15.90;99.90
2012;DHT22;1009;51.436;6.972;2022-09-11T02:24:14;16.00;99.90
2012;DHT22;1009;51.436;6.972;2022-09-11T02:26:44;15.90;99.90
2012;DHT22;1009;51.436;6.972;2022-09-11T02:29:14;15.90;99.90
2012;DHT22;1009;51.436;6.972;2022-09-11T02:31:41;15.90;99.90
2012;DHT22;1009;51.436;6.972;2022-09-11T02:34:09;15.90;99.90
2012;DHT22;1009;51.436;6.972;2022-09-11T02:36:55;15.90;99.90
2012;DHT22;1009;51.436;6.972;2022-09-11T02:39:46;16.00;99.90
2012;DHT22;1009;51.436;6.972;2022-09-11T02:42:25;15.90;99.90
2012;DHT22;1009;51.436;6.972;2022-09-11T02:45:02;15.90;99.90
2012;DHT22;1009;51.436;6.972;2022-09-11T02:47:41;16.00;99.90
2012;DHT22;1009;51.436;6.972;2022-09-11T02:50:15;16.00;99.90
2012;DHT22;1009;51.436;6.972;2022-09-11T02:52:46;15.90;99.90
2012;DHT22;1009;51.436;6.972;2022-09-11T02:55:19;15.90;99.90
2012;DHT22;1009;51.436;6.972;2022-09-11T02:57:56;15.90;99.90
2012;DHT22;1009;51.436;6.972;2022-09-11T03:00:25;15.90;99.90
2012;DHT22;1009;51.436;6.972;2022-09-11T03:02:52;15.90;99.90
2012;DHT22;1009;51.436;6.972;2022-09-11T03:05:19;15.90;99.90
2012;DHT22;1009;51.436;6.972;2022-09-11T03:07:47;16.00;99.90
2012;DHT22;1009;51.436;6.972;2022-09-11T03:10:14;16.10;99.90
2012;DHT22;1009;51.436;6.972;2022-09-11T03:12:41;16.10;99.90
2012;DHT22;1009;51.436;6.972;2022-09-11T03:15:09;15.90;99.90
2012;DHT22;1009;51.436;6.972;2022-09-11T03:17:37;15.90;99.90
2012;DHT22;1009;51.436;6.972;2022-09-11T03:20:05;15.90;99.90
2012;DHT22;1009;51.436;6.972;2022-09-11T03:22:32;15.90;99.90
2012;DHT22;1009;51.436;6.972;2022-09-11T03:25:00;15.90;99.90
2012;DHT22;1009;51.436;6.972;2022-09-11T03:27:27;15.90;99.90
2012;DHT22;1009;51.436;6.972;2022-09-11T03:29:54;15.90;99.90
2012;DHT22;1009;51.436;6.972;2022-09-11T03:32:21;15.90;99.90
2012;DHT22;1009;51.436;6.972;2022-09-11T03:34:49;15.90;99.90
2012;DHT22;1009;51.436;6.972;2022-09-11T03:37:16;15.90;99.90
2012;DHT22;1009;51.436;6.972;2022-09-11T03:39:43;15.90;99.90
2012;DHT22;1009;51.436;6.972;2022-09-11T03:42:10;15.90;99.90
2012;DHT22;1009;51.436;6.972;2022-09-11T03:44:37;15.90;99.90
2012;DHT22;1009;51.436;6.972;2022-09-11T03:47:04;16.00;99.90
2012;DHT22;1009;51.436;6.972;2022-09-11T03:49:31;16.00;99.90
2012;DHT22;1009;51.436;6.972;2022-09-11T03:51:59;16.10;99.90
2012;DHT22;1009;51.436;6.972;2022-09-11T03:54:26;16.10;99.90
2012;DHT22;1009;51.436;6.972;2022-09-11T03:56:53;16.10;99.90
2012;DHT22;1009;51.436;6.972;2022-09-11T03:59:20;16.10;99.90
2012;DHT22;1009;51.436;6.972;2022-09-11T04:01:47;16.20;99.90
2012;DHT22;1009;51.436;6.972;2022-09-11T04:04:15;16.20;99.90
2012;DHT22;1009;51.436;6.972;2022-09-11T04:06:42;16.10;99.90
2012;DHT22;1009;51.436;6.972;2022-09-11T04:09:10;16.10;99.90
2012;DHT22;1009;51.436;6.972;2022-09-11T04:11:37;16.10;99.90
2012;DHT22;1009;51.436;6.972;2022-09-11T04:14:04;15.90;99.90
2012;DHT22;1009;51.436;6.972;2022-09-11T04:16:32;15.90;99.90
2012;DHT22;1009;51.436;6.972;2022-09-11T04:19:00;15.90;99.90
2012;DHT22;1009;51.436;6.972;2022-09-11T04:21:28;15.80;99.90
2012;DHT22;1009;51.436;6.972;2022-09-11T04:23:55;15.80;99.90
2012;DHT22;1009;51.436;6.972;2022-09-11T04:26:27;15.80;99.90
2012;DHT22;1009;51.436;6.972;2022-09-11T04:28:54;15.80;99.90
2012;DHT22;1009;51.436;6.972;2022-09-11T04:31:21;15.90;99.90
2012;DHT22;1009;51.436;6.972;2022-09-11T04:33:48;15.80;99.90
2012;DHT22;1009;51.436;6.972;2022-09-11T04:36:17;15.90;99.90
2012;DHT22;1009;51.436;6.972;2022-09-11T04:38:45;16.00;99.90
2012;DHT22;1009;51.436;6.972;2022-09-11T04:41:13;16.00;99.90
2012;DHT22;1009;51.436;6.972;2022-09-11T04:43:41;15.90;99.90
2012;DHT22;1009;51.436;6.972;2022-09-11T04:46:10;15.90;99.90
2012;DHT22;1009;51.436;6.972;2022-09-11T04:48:42;15.90;99.90
2012;DHT22;1009;51.436;6.972;2022-09-11T04:51:09;15.90;99.90
2012;DHT22;1009;51.436;6.972;2022-09-11T04:53:36;15.90;99.90
2012;DHT22;1009;51.436;6.972;2022-09-11T04:56:04;16.00;99.90
2012;DHT22;1009;51.436;6.972;2022-09-11T04:58:32;16.00;99.90
2012;DHT22;1009;51.436;6.972;2022-09-11T05:01:02;16.00;99.90
2012;DHT22;1009;51.436;6.972;2022-09-11T05:03:31;16.10;99.90
2012;DHT22;1009;51.436;6.972;2022-09-11T05:05:57;16.10;99.90
2012;DHT22;1009;51.436;6.972;2022-09-11T05:08:25;16.10;99.90
2012;DHT22;1009;51.436;6.972;2022-09-11T05:10:52;16.10;99.90
2012;DHT22;1009;51.436;6.972;2022-09-11T05:13:19;16.00;99.90
2012;DHT22;1009;51.436;6.972;2022-09-11T05:15:46;16.00;99.90
2012;DHT22;1009;51.436;6.972;2022-09-11T05:18:14;16.10;99.90
2012;DHT22;1009;51.436;6.972;2022-09-11T05:20:41;16.10;99.90
2012;DHT22;1009;51.436;6.972;2022-09-11T05:23:10;16.10;99.90
2012;DHT22;1009;51.436;6.972;2022-09-11T05:25:37;16.20;99.90
2012;DHT22;1009;51.436;6.972;2022-09-11T05:28:03;16.10;99.90
2012;DHT22;1009;51.436;6.972;2022-09-11T05:30:30;16.10;99.90
2012;DHT22;1009;51.436;6.972;2022-09-11T05:32:57;16.20;99.90
2012;DHT22;1009;51.436;6.972;2022-09-11T05:35:25;16.10;99.90
2012;DHT22;1009;51.436;6.972;2022-09-11T05:37:52;16.20;99.90
2012;DHT22;1009;51.436;6.972;2022-09-11T05:40:19;16.20;99.90
2012;DHT22;1009;51.436;6.972;2022-09-11T05:42:45;16.10;99.90
2012;DHT22;1009;51.436;6.972;2022-09-11T05:45:12;16.30;99.90
2012;DHT22;1009;51.436;6.972;2022-09-11T05:47:39;16.30;99.90
2012;DHT22;1009;51.436;6.972;2022-09-11T05:50:07;16.20;99.90
2012;DHT22;1009;51.436;6.972;2022-09-11T05:52:35;16.10;99.90
2012;DHT22;1009;51.436;6.972;2022-09-11T05:55:03;16.20;99.90
2012;DHT22;1009;51.436;6.972;2022-09-11T05:57:29;16.20;99.90
2012;DHT22;1009;51.436;6.972;2022-09-11T05:59:56;16.30;99.90
2012;DHT22;1009;51.436;6.972;2022-09-11T06:02:23;16.20;99.90
2012;DHT22;1009;51.436;6.972;2022-09-11T06:04:50;16.20;99.90
2012;DHT22;1009;51.436;6.972;2022-09-11T06:07:16;16.10;99.90
2012;DHT22;1009;51.436;6.972;2022-09-11T06:09:45;16.30;99.90
2012;DHT22;1009;51.436;6.972;2022-09-11T06:12:12;16.30;99.90
2012;DHT22;1009;51.436;6.972;2022-09-11T06:14:39;16.30;99.90
2012;DHT22;1009;51.436;6.972;2022-09-11T06:17:07;16.30;99.90
2012;DHT22;1009;51.436;6.972;2022-09-11T06:19:34;16.30;99.90
2012;DHT22;1009;51.436;6.972;2022-09-11T06:22:00;16.30;99.90
2012;DHT22;1009;51.436;6.972;2022-09-11T06:24:27;16.30;99.90
2012;DHT22;1009;51.436;6.972;2022-09-11T06:26:55;16.30;99.90
2012;DHT22;1009;51.436;6.972;2022-09-11T06:29:22;16.40;99.90
2012;DHT22;1009;51.436;6.972;2022-09-11T06:31:49;16.40;99.90
2012;DHT22;1009;51.436;6.972;2022-09-11T06:34:16;16.50;99.90
2012;DHT22;1009;51.436;6.972;2022-09-11T06:36:44;16.50;99.90
2012;DHT22;1009;51.436;6.972;2022-09-11T06:39:13;16.50;99.90
2012;DHT22;1009;51.436;6.972;2022-09-11T06:41:39;16.60;99.90
2012;DHT22;1009;51.436;6.972;2022-09-11T06:44:07;16.60;99.90
2012;DHT22;1009;51.436;6.972;2022-09-11T06:46:35;16.50;99.90
2012;DHT22;1009;51.436;6.972;2022-09-11T06:49:02;16.40;99.90
2012;DHT22;1009;51.436;6.972;2022-09-11T06:51:29;16.40;99.90
2012;DHT22;1009;51.436;6.972;2022-09-11T06:53:56;16.30;99.90
2012;DHT22;1009;51.436;6.972;2022-09-11T06:56:27;16.40;99.90
2012;DHT22;1009;51.436;6.972;2022-09-11T06:58:55;16.40;99.90
2012;DHT22;1009;51.436;6.972;2022-09-11T07:01:23;16.40;99.90
2012;DHT22;1009;51.436;6.972;2022-09-11T07:03:51;16.50;99.90
2012;DHT22;1009;51.436;6.972;2022-09-11T07:06:20;16.50;99.90
2012;DHT22;1009;51.436;6.972;2022-09-11T07:08:49;16.50;99.90
2012;DHT22;1009;51.436;6.972;2022-09-11T07:11:18;16.30;99.90
2012;DHT22;1009;51.436;6.972;2022-09-11T07:13:45;16.30;99.90
2012;DHT22;1009;51.436;6.972;2022-09-11T07:16:12;16.20;99.90
2012;DHT22;1009;51.436;6.972;2022-09-11T07:18:44;16.30;99.90
2012;DHT22;1009;51.436;6.972;2022-09-11T07:21:12;16.30;99.90
2012;DHT22;1009;51.436;6.972;2022-09-11T07:23:40;16.40;99.90
2012;DHT22;1009;51.436;6.972;2022-09-11T07:26:10;16.40;99.90
2012;DHT22;1009;51.436;6.972;2022-09-11T07:28:37;16.50;99.90
2012;DHT22;1009;51.436;6.972;2022-09-11T07:31:06;16.50;99.90
2012;DHT22;1009;51.436;6.972;2022-09-11T07:33:36;16.60;99.90
2012;DHT22;1009;51.436;6.972;2022-09-11T07:36:08;16.60;99.90
2012;DHT22;1009;51.436;6.972;2022-09-11T07:38:37;16.70;99.90
2012;DHT22;1009;51.436;6.972;2022-09-11T07:41:05;16.60;99.90
2012;DHT22;1009;51.436;6.972;2022-09-11T07:43:33;16.50;99.90
2012;DHT22;1009;51.436;6.972;2022-09-11T07:46:00;16.50;99.90
2012;DHT22;1009;51.436;6.972;2022-09-11T07:48:28;16.60;99.90
2012;DHT22;1009;51.436;6.972;2022-09-11T07:50:56;16.50;99.90
2012;DHT22;1009;51.436;6.972;2022-09-11T07:53:24;16.50;99.90
2012;DHT22;1009;51.436;6.972;2022-09-11T07:55:52;16.50;99.90
2012;DHT22;1009;51.436;6.972;2022-09-11T07:58:19;16.60;99.90
2012;DHT22;1009;51.436;6.972;2022-09-11T08:00:46;16.70;99.90
2012;DHT22;1009;51.436;6.972;2022-09-11T08:03:13;16.70;99.90
2012;DHT22;1009;51.436;6.972;2022-09-11T08:05:40;16.70;99.90
2012;DHT22;1009;51.436;6.972;2022-09-11T08:08:07;16.80;99.90
2012;DHT22;1009;51.436;6.972;2022-09-11T08:10:36;16.70;99.90
2012;DHT22;1009;51.436;6.972;2022-09-11T08:13:05;16.80;99.90
2012;DHT22;1009;51.436;6.972;2022-09-11T08:15:33;16.90;99.90
2012;DHT22;1009;51.436;6.972;2022-09-11T08:18:00;17.00;99.90
2012;DHT22;1009;51.436;6.972;2022-09-11T08:20:27;16.90;99.90
2012;DHT22;1009;51.436;6.972;2022-09-11T08:22:53;17.00;99.90
2012;DHT22;1009;51.436;6.972;2022-09-11T08:25:20;17.00;99.90
2012;DHT22;1009;51.436;6.972;2022-09-11T08:27:49;17.00;99.90
2012;DHT22;1009;51.436;6.972;2022-09-11T08:30:17;17.00;99.90
2012;DHT22;1009;51.436;6.972;2022-09-11T08:32:44;17.00;99.90
2012;DHT22;1009;51.436;6.972;2022-09-11T08:35:11;16.90;99.90
2012;DHT22;1009;51.436;6.972;2022-09-11T08:37:38;16.90;99.90
2012;DHT22;1009;51.436;6.972;2022-09-11T08:40:07;16.90;99.90
2012;DHT22;1009;51.436;6.972;2022-09-11T08:42:36;16.90;99.90
2012;DHT22;1009;51.436;6.972;2022-09-11T08:45:06;16.90;99.90
2012;DHT22;1009;51.436;6.972;2022-09-11T08:47:34;17.00;99.90
2012;DHT22;1009;51.436;6.972;2022-09-11T08:50:04;16.90;99.90
2012;DHT22;1009;51.436;6.972;2022-09-11T08:52:34;16.80;99.90
2012;DHT22;1009;51.436;6.972;2022-09-11T08:55:02;16.70;99.90
2012;DHT22;1009;51.436;6.972;2022-09-11T08:57:36;16.70;99.90
2012;DHT22;1009;51.436;6.972;2022-09-11T09:00:12;16.60;99.90
2012;DHT22;1009;51.436;6.972;2022-09-11T09:03:04;16.50;99.90
2012;DHT22;1009;51.436;6.972;2022-09-11T09:05:43;16.50;99.90
2012;DHT22;1009;51.436;6.972;2022-09-11T09:08:20;16.50;99.90
2012;DHT22;1009;51.436;6.972;2022-09-11T09:10:55;16.60;99.90
2012;DHT22;1009;51.436;6.972;2022-09-11T09:13:47;16.70;99.90
2012;DHT22;1009;51.436;6.972;2022-09-11T09:16:27;16.70;99.90
2012;DHT22;1009;51.436;6.972;2022-09-11T09:19:03;16.80;99.90
2012;DHT22;1009;51.436;6.972;2022-09-11T09:21:36;16.90;99.90
2012;DHT22;1009;51.436;6.972;2022-09-11T09:24:12;16.80;99.90
2012;DHT22;1009;51.436;6.972;2022-09-11T09:26:46;16.80;99.90
2012;DHT22;1009;51.436;6.972;2022-09-11T09:29:18;16.80;99.90
2012;DHT22;1009;51.436;6.972;2022-09-11T09:31:50;16.80;99.90
2012;DHT22;1009;51.436;6.972;2022-09-11T09:34:19;16.90;99.90
2012;DHT22;1009;51.436;6.972;2022-09-11T09:36:51;16.90;99.90
2012;DHT22;1009;51.436;6.972;2022-09-11T09:39:21;16.90;99.90
2012;DHT22;1009;51.436;6.972;2022-09-11T09:42:16;16.90;99.90
2012;DHT22;1009;51.436;6.972;2022-09-11T09:45:15;16.90;99.90
2012;DHT22;1009;51.436;6.972;2022-09-11T09:47:47;16.90;99.90
2012;DHT22;1009;51.436;6.972;2022-09-11T09:50:17;16.90;99.90
2012;DHT22;1009;51.436;6.972;2022-09-11T09:52:46;16.90;99.90
2012;DHT22;1009;51.436;6.972;2022-09-11T09:55:16;16.90;99.90
2012;DHT22;1009;51.436;6.972;2022-09-11T09:57:43;17.00;99.90
2012;DHT22;1009;51.436;6.972;2022-09-11T10:00:16;16.90;99.90
2012;DHT22;1009;51.436;6.972;2022-09-11T10:02:47;17.00;99.90
2012;DHT22;1009;51.436;6.972;2022-09-11T10:05:23;16.90;99.90
2012;DHT22;1009;51.436;6.972;2022-09-11T10:07:52;17.10;99.90
2012;DHT22;1009;51.436;6.972;2022-09-11T10:10:28;17.20;99.90
2012;DHT22;1009;51.436;6.972;2022-09-11T10:12:57;17.30;99.90
2012;DHT22;1009;51.436;6.972;2022-09-11T10:15:25;17.30;99.90
2012;DHT22;1009;51.436;6.972;2022-09-11T10:18:29;17.30;99.90
2012;DHT22;1009;51.436;6.972;2022-09-11T10:21:25;17.10;99.90
2012;DHT22;1009;51.436;6.972;2022-09-11T10:23:55;17.00;99.90
2012;DHT22;1009;51.436;6.972;2022-09-11T10:26:26;16.90;99.90
2012;DHT22;1009;51.436;6.972;2022-09-11T10:28:57;16.90;99.90
2012;DHT22;1009;51.436;6.972;2022-09-11T10:31:24;17.10;99.90
2012;DHT22;1009;51.436;6.972;2022-09-11T10:33:55;17.10;99.90
2012;DHT22;1009;51.436;6.972;2022-09-11T10:36:25;17.10;99.90
2012;DHT22;1009;51.436;6.972;2022-09-11T10:38:54;17.20;99.90
2012;DHT22;1009;51.436;6.972;2022-09-11T10:41:22;17.20;99.90
2012;DHT22;1009;51.436;6.972;2022-09-11T10:43:53;17.40;99.90
2012;DHT22;1009;51.436;6.972;2022-09-11T10:46:26;17.50;99.90
2012;DHT22;1009;51.436;6.972;2022-09-11T10:48:57;17.60;99.90
2012;DHT22;1009;51.436;6.972;2022-09-11T10:51:26;17.80;99.90
2012;DHT22;1009;51.436;6.972;2022-09-11T10:54:15;18.00;99.90
2012;DHT22;1009;51.436;6.972;2022-09-11T10:56:52;18.10;99.90
2012;DHT22;1009;51.436;6.972;2022-09-11T10:59:29;18.00;99.90
2012;DHT22;1009;51.436;6.972;2022-09-11T11:01:59;18.10;99.90
2012;DHT22;1009;51.436;6.972;2022-09-11T11:04:31;18.40;99.90
2012;DHT22;1009;51.436;6.972;2022-09-11T11:07:03;18.70;99.90
2012;DHT22;1009;51.436;6.972;2022-09-11T11:09:42;18.80;99.90
2012;DHT22;1009;51.436;6.972;2022-09-11T11:12:26;18.70;99.90
2012;DHT22;1009;51.436;6.972;2022-09-11T11:15:11;18.80;99.90
2012;DHT22;1009;51.436;6.972;2022-09-11T11:17:45;19.00;99.90
2012;DHT22;1009;51.436;6.972;2022-09-11T11:20:39;19.00;99.90
2012;DHT22;1009;51.436;6.972;2022-09-11T11:23:22;19.10;99.90
2012;DHT22;1009;51.436;6.972;2022-09-11T11:26:00;19.30;99.90
2012;DHT22;1009;51.436;6.972;2022-09-11T11:29:02;19.40;99.90
2012;DHT22;1009;51.436;6.972;2022-09-11T11:31:45;19.20;99.90
2012;DHT22;1009;51.436;6.972;2022-09-11T11:34:30;19.10;99.90
2012;DHT22;1009;51.436;6.972;2022-09-11T11:37:04;18.80;99.90
2012;DHT22;1009;51.436;6.972;2022-09-11T11:39:45;18.70;99.90
2012;DHT22;1009;51.436;6.972;2022-09-11T11:42:18;18.60;99.90
2012;DHT22;1009;51.436;6.972;2022-09-11T11:44:51;18.60;99.90
2012;DHT22;1009;51.436;6.972;2022-09-11T11:47:21;18.70;99.90
2012;DHT22;1009;51.436;6.972;2022-09-11T11:49:57;19.00;99.90
2012;DHT22;1009;51.436;6.972;2022-09-11T11:52:42;19.30;99.90
2012;DHT22;1009;51.436;6.972;2022-09-11T11:55:17;19.40;99.90
2012;DHT22;1009;51.436;6.972;2022-09-11T11:57:54;19.50;99.90
2012;DHT22;1009;51.436;6.972;2022-09-11T12:00:23;19.50;99.90
2012;DHT22;1009;51.436;6.972;2022-09-11T12:02:53;19.50;99.90
2012;DHT22;1009;51.436;6.972;2022-09-11T12:05:22;19.50;99.90
2012;DHT22;1009;51.436;6.972;2022-09-11T12:07:52;19.40;99.90
2012;DHT22;1009;51.436;6.972;2022-09-11T12:10:21;19.60;99.90
2012;DHT22;1009;51.436;6.972;2022-09-11T12:12:54;19.80;99.90
2012;DHT22;1009;51.436;6.972;2022-09-11T12:15:23;19.90;99.90
2012;DHT22;1009;51.436;6.972;2022-09-11T12:17:58;19.90;99.90
2012;DHT22;1009;51.436;6.972;2022-09-11T12:20:31;19.60;99.90
2012;DHT22;1009;51.436;6.972;2022-09-11T12:23:00;19.50;99.90
2012;DHT22;1009;51.436;6.972;2022-09-11T12:25:49;19.50;99.90
2012;DHT22;1009;51.436;6.972;2022-09-11T12:28:23;19.50;99.90
2012;DHT22;1009;51.436;6.972;2022-09-11T12:31:01;19.50;99.90
2012;DHT22;1009;51.436;6.972;2022-09-11T12:33:53;19.60;99.90
2012;DHT22;1009;51.436;6.972;2022-09-11T12:36:34;19.70;99.90
2012;DHT22;1009;51.436;6.972;2022-09-11T12:39:20;19.70;99.90
2012;DHT22;1009;51.436;6.972;2022-09-11T12:41:49;20.00;99.90
2012;DHT22;1009;51.436;6.972;2022-09-11T12:44:31;20.40;99.90
2012;DHT22;1009;51.436;6.972;2022-09-11T12:47:20;20.60;99.90
2012;DHT22;1009;51.436;6.972;2022-09-11T12:49:52;20.20;99.90
2012;DHT22;1009;51.436;6.972;2022-09-11T12:52:26;19.90;99.90
2012;DHT22;1009;51.436;6.972;2022-09-11T12:55:18;19.70;99.90
2012;DHT22;1009;51.436;6.972;2022-09-11T12:57:48;19.90;99.90
2012;DHT22;1009;51.436;6.972;2022-09-11T13:00:22;20.00;99.90
2012;DHT22;1009;51.436;6.972;2022-09-11T13:02:52;20.10;99.90
2012;DHT22;1009;51.436;6.972;2022-09-11T13:05:24;20.10;99.90
2012;DHT22;1009;51.436;6.972;2022-09-11T13:07:53;20.30;99.90
2012;DHT22;1009;51.436;6.972;2022-09-11T13:10:28;20.40;99.90
2012;DHT22;1009;51.436;6.972;2022-09-11T13:12:58;20.10;99.90
2012;DHT22;1009;51.436;6.972;2022-09-11T13:15:37;19.70;99.90
2012;DHT22;1009;51.436;6.972;2022-09-11T13:18:24;19.40;99.90
2012;DHT22;1009;51.436;6.972;2022-09-11T13:20:59;19.70;99.90
2012;DHT22;1009;51.436;6.972;2022-09-11T13:23:29;20.00;99.90
2012;DHT22;1009;51.436;6.972;2022-09-11T13:25:57;20.50;99.90
2012;DHT22;1009;51.436;6.972;2022-09-11T13:28:26;20.80;99.90
2012;DHT22;1009;51.436;6.972;2022-09-11T13:30:59;21.10;99.90
2012;DHT22;1009;51.436;6.972;2022-09-11T13:33:30;21.30;99.90
2012;DHT22;1009;51.436;6.972;2022-09-11T13:35:59;21.20;99.90
2012;DHT22;1009;51.436;6.972;2022-09-11T13:38:30;21.30;99.90
2012;DHT22;1009;51.436;6.972;2022-09-11T13:41:00;21.60;99.90
2012;DHT22;1009;51.436;6.972;2022-09-11T13:43:32;21.60;99.90
2012;DHT22;1009;51.436;6.972;2022-09-11T13:46:16;21.60;99.90
2012;DHT22;1009;51.436;6.972;2022-09-11T13:48:45;21.60;99.90
2012;DHT22;1009;51.436;6.972;2022-09-11T13:51:14;21.70;99.90
2012;DHT22;1009;51.436;6.972;2022-09-11T13:53:43;21.50;99.90
2012;DHT22;1009;51.436;6.972;2022-09-11T13:56:18;21.50;99.90
2012;DHT22;1009;51.436;6.972;2022-09-11T13:58:52;21.60;99.90
2012;DHT22;1009;51.436;6.972;2022-09-11T14:01:19;21.80;99.90
2012;DHT22;1009;51.436;6.972;2022-09-11T14:03:46;21.80;99.90
2012;DHT22;1009;51.436;6.972;2022-09-11T14:06:15;21.80;99.90
2012;DHT22;1009;51.436;6.972;2022-09-11T14:08:48;22.00;99.90
2012;DHT22;1009;51.436;6.972;2022-09-11T14:11:23;22.10;99.90
2012;DHT22;1009;51.436;6.972;2022-09-11T14:13:53;22.30;99.90
2012;DHT22;1009;51.436;6.972;2022-09-11T14:16:24;22.50;99.90
2012;DHT22;1009;51.436;6.972;2022-09-11T14:18:53;22.30;99.90
2012;DHT22;1009;51.436;6.972;2022-09-11T14:21:25;22.10;99.90
2012;DHT22;1009;51.436;6.972;2022-09-11T14:23:57;21.80;99.90
2012;DHT22;1009;51.436;6.972;2022-09-11T14:26:39;21.80;99.90
2012;DHT22;1009;51.436;6.972;2022-09-11T14:29:21;21.70;99.90
2012;DHT22;1009;51.436;6.972;2022-09-11T14:31:49;21.70;99.90
2012;DHT22;1009;51.436;6.972;2022-09-11T14:34:17;21.30;99.90
2012;DHT22;1009;51.436;6.972;2022-09-11T14:36:49;21.20;99.90
2012;DHT22;1009;51.436;6.972;2022-09-11T14:39:26;21.20;99.90
2012;DHT22;1009;51.436;6.972;2022-09-11T14:41:56;21.20;99.90
2012;DHT22;1009;51.436;6.972;2022-09-11T14:44:23;21.30;99.90
2012;DHT22;1009;51.436;6.972;2022-09-11T14:46:51;21.30;99.90
2012;DHT22;1009;51.436;6.972;2022-09-11T14:49:19;21.40;99.90
2012;DHT22;1009;51.436;6.972;2022-09-11T14:51:52;21.30;99.90
2012;DHT22;1009;51.436;6.972;2022-09-11T14:54:20;21.30;99.90
2012;DHT22;1009;51.436;6.972;2022-09-11T14:56:47;21.20;99.90
2012;DHT22;1009;51.436;6.972;2022-09-11T14:59:16;21.10;99.90
2012;DHT22;1009;51.436;6.972;2022-09-11T15:01:43;21.00;99.90
2012;DHT22;1009;51.436;6.972;2022-09-11T15:04:16;21.00;99.90
2012;DHT22;1009;51.436;6.972;2022-09-11T15:06:43;21.10;99.90
2012;DHT22;1009;51.436;6.972;2022-09-11T15:09:10;21.10;99.90
2012;DHT22;1009;51.436;6.972;2022-09-11T15:11:37;21.10;99.90
2012;DHT22;1009;51.436;6.972;2022-09-11T15:14:04;21.10;99.90
2012;DHT22;1009;51.436;6.972;2022-09-11T15:16:34;21.00;99.90
2012;DHT22;1009;51.436;6.972;2022-09-11T15:19:01;21.00;99.90
2012;DHT22;1009;51.436;6.972;2022-09-11T15:21:27;20.80;99.90
2012;DHT22;1009;51.436;6.972;2022-09-11T15:23:54;20.70;99.90
2012;DHT22;1009;51.436;6.972;2022-09-11T15:26:21;20.60;99.90
2012;DHT22;1009;51.436;6.972;2022-09-11T15:28:48;20.60;99.90
2012;DHT22;1009;51.436;6.972;2022-09-11T15:31:16;20.70;99.90
2012;DHT22;1009;51.436;6.972;2022-09-11T15:33:48;20.70;99.90
2012;DHT22;1009;51.436;6.972;2022-09-11T15:36:15;20.70;99.90
2012;DHT22;1009;51.436;6.972;2022-09-11T15:38:42;20.80;99.90
2012;DHT22;1009;51.436;6.972;2022-09-11T15:41:09;20.80;99.90
2012;DHT22;1009;51.436;6.972;2022-09-11T15:43:37;20.70;99.90
2012;DHT22;1009;51.436;6.972;2022-09-11T15:46:07;20.80;99.90
2012;DHT22;1009;51.436;6.972;2022-09-11T15:48:35;20.80;99.90
2012;DHT22;1009;51.436;6.972;2022-09-11T15:51:04;20.70;99.90
2012;DHT22;1009;51.436;6.972;2022-09-11T15:53:32;20.70;99.90
2012;DHT22;1009;51.436;6.972;2022-09-11T15:56:02;20.70;99.90
2012;DHT22;1009;51.436;6.972;2022-09-11T15:58:30;20.70;99.90
2012;DHT22;1009;51.436;6.972;2022-09-11T16:00:58;20.70;99.90
2012;DHT22;1009;51.436;6.972;2022-09-11T16:03:26;20.70;99.90
2012;DHT22;1009;51.436;6.972;2022-09-11T16:05:52;20.60;99.90
2012;DHT22;1009;51.436;6.972;2022-09-11T16:08:21;20.60;99.90
2012;DHT22;1009;51.436;6.972;2022-09-11T16:10:48;20.70;99.90
2012;DHT22;1009;51.436;6.972;2022-09-11T16:13:15;20.70;99.90
2012;DHT22;1009;51.436;6.972;2022-09-11T16:15:42;20.80;99.90
2012;DHT22;1009;51.436;6.972;2022-09-11T16:18:10;20.70;99.90
2012;DHT22;1009;51.436;6.972;2022-09-11T16:20:37;20.70;99.90
2012;DHT22;1009;51.436;6.972;2022-09-11T16:23:08;20.60;99.90
2012;DHT22;1009;51.436;6.972;2022-09-11T16:25:38;20.60;99.90